createdAt,value
2022-08-02T00:00:29.660Z,19.18
2022-08-02T00:01:29.636Z,19.20
2022-08-02T00:02:29.514Z,19.35
2022-08-02T00:03:29.434Z,19.31
2022-08-02T00:04:29.362Z,19.40
2022-08-02T00:05:29.286Z,19.27
2022-08-02T00:06:29.213Z,19.31
2022-08-02T00:07:29.142Z,19.28
2022-08-02T00:08:29.067Z,19.15
2022-08-02T00:09:28.985Z,19.06
2022-08-02T00:10:28.925Z,18.92
2022-08-02T00:11:28.844Z,18.74
2022-08-02T00:12:28.763Z,18.57
2022-08-02T00:13:28.691Z,18.59
2022-08-02T00:14:28.614Z,18.44
2022-08-02T00:15:28.543Z,18.35
2022-08-02T00:16:38.159Z,18.35
2022-08-02T00:17:28.394Z,18.32
2022-08-02T00:18:28.317Z,18.37
2022-08-02T00:19:28.245Z,18.34
2022-08-02T00:20:28.167Z,18.40
2022-08-02T00:21:28.094Z,18.40
2022-08-02T00:22:28.012Z,18.47
2022-08-02T00:23:27.944Z,18.50
2022-08-02T00:24:30.566Z,18.37
2022-08-02T00:25:27.793Z,18.53
2022-08-02T00:26:27.714Z,18.50
2022-08-02T00:27:27.639Z,18.59
2022-08-02T00:28:28.348Z,18.68
2022-08-02T00:29:27.488Z,18.64
2022-08-02T00:30:27.411Z,18.65
2022-08-02T00:31:27.343Z,18.77
2022-08-02T00:32:27.278Z,18.77
2022-08-02T00:34:28.046Z,18.92
2022-08-02T00:34:32.041Z,18.95
2022-08-02T00:35:27.042Z,18.92
2022-08-02T00:36:26.965Z,18.95
2022-08-02T00:37:26.887Z,18.82
2022-08-02T00:38:26.815Z,18.68
2022-08-02T00:39:33.800Z,18.57
2022-08-02T00:40:26.662Z,18.49
2022-08-02T00:41:26.591Z,18.43
2022-08-02T00:42:26.526Z,18.43
2022-08-02T00:43:26.440Z,18.44
2022-08-02T00:44:26.365Z,18.40
2022-08-02T00:46:02.297Z,18.47
2022-08-02T00:46:26.213Z,18.39
2022-08-02T00:47:26.141Z,18.35
2022-08-02T00:48:26.073Z,18.28
2022-08-02T00:49:26.063Z,18.22
2022-08-02T00:50:25.914Z,18.14
2022-08-02T00:51:25.838Z,18.14
2022-08-02T00:52:25.760Z,18.07
2022-08-02T00:53:25.687Z,18.14
2022-08-02T00:54:25.612Z,18.14
2022-08-02T00:55:30.858Z,18.03
2022-08-02T00:56:25.463Z,18.07
2022-08-02T00:57:25.389Z,18.07
2022-08-02T00:58:25.311Z,18.09
2022-08-02T00:59:25.236Z,18.16
2022-08-02T01:00:25.163Z,18.11
2022-08-02T01:01:25.162Z,17.98
2022-08-02T01:02:25.010Z,17.89
2022-08-02T01:03:24.936Z,17.81
2022-08-02T01:04:30.303Z,17.66
2022-08-02T01:05:24.786Z,17.71
2022-08-02T01:06:24.712Z,17.70
2022-08-02T01:07:24.634Z,17.63
2022-08-02T01:08:29.617Z,17.66
2022-08-02T01:09:24.491Z,17.63
2022-08-02T01:10:24.408Z,17.69
2022-08-02T01:11:24.335Z,17.63
2022-08-02T01:12:24.263Z,17.58
2022-08-02T01:13:24.184Z,17.63
2022-08-02T01:14:24.106Z,17.69
2022-08-02T01:15:24.033Z,17.71
2022-08-02T01:16:23.955Z,17.66
2022-08-02T01:17:23.880Z,17.69
2022-08-02T01:18:23.807Z,17.64
2022-08-02T01:19:23.730Z,17.44
2022-08-02T01:20:23.652Z,17.38
2022-08-02T01:21:23.581Z,17.50
2022-08-02T01:22:39.372Z,17.50
2022-08-02T01:23:23.438Z,17.46
2022-08-02T01:24:23.353Z,17.55
2022-08-02T01:25:23.277Z,17.66
2022-08-02T01:26:23.199Z,17.69
2022-08-02T01:27:23.131Z,17.66
2022-08-02T01:28:23.048Z,17.76
2022-08-02T01:29:22.976Z,17.79
2022-08-02T01:30:22.898Z,17.66
2022-08-02T01:31:22.826Z,17.76
2022-08-02T01:32:22.745Z,17.77
2022-08-02T01:33:22.671Z,17.73
2022-08-02T01:34:22.592Z,17.60
2022-08-02T01:35:22.520Z,17.60
2022-08-02T01:36:22.442Z,17.50
2022-08-02T01:37:22.370Z,17.43
2022-08-02T01:38:22.293Z,17.48
2022-08-02T01:39:26.367Z,17.46
2022-08-02T01:40:22.145Z,17.50
2022-08-02T01:41:22.068Z,17.63
2022-08-02T01:42:21.991Z,17.58
2022-08-02T01:43:21.916Z,17.53
2022-08-02T01:44:27.263Z,17.51
2022-08-02T01:45:21.774Z,17.28
2022-08-02T01:46:21.690Z,17.17
2022-08-02T01:47:21.614Z,17.03
2022-08-02T01:48:21.537Z,16.93
2022-08-02T01:49:21.742Z,16.85
2022-08-02T01:50:21.397Z,16.92
2022-08-02T01:51:21.311Z,16.96
2022-08-02T01:52:21.236Z,16.88
2022-08-02T01:53:21.161Z,16.99
2022-08-02T01:54:21.080Z,17.03
2022-08-02T01:55:21.011Z,17.11
2022-08-02T01:56:20.926Z,17.13
2022-08-02T01:57:20.857Z,17.20
2022-08-02T01:58:20.777Z,17.25
2022-08-02T01:59:20.712Z,17.20
2022-08-02T02:00:20.623Z,17.18
2022-08-02T02:01:20.573Z,17.28
2022-08-02T02:02:20.479Z,17.18
2022-08-02T02:03:20.402Z,17.30
2022-08-02T02:04:20.320Z,17.20
2022-08-02T02:05:20.247Z,17.11
2022-08-02T02:06:20.171Z,17.10
2022-08-02T02:07:20.095Z,16.98
2022-08-02T02:08:26.924Z,16.84
2022-08-02T02:09:19.945Z,16.84
2022-08-02T02:10:19.865Z,16.85
2022-08-02T02:12:06.508Z,16.82
2022-08-02T02:12:20.518Z,16.85
2022-08-02T02:13:19.641Z,16.84
2022-08-02T02:14:19.564Z,16.93
2022-08-02T02:15:19.490Z,17.00
2022-08-02T02:16:19.410Z,16.99
2022-08-02T02:18:10.677Z,17.07
2022-08-02T02:18:19.265Z,17.11
2022-08-02T02:19:21.119Z,17.13
2022-08-02T02:20:19.118Z,17.03
2022-08-02T02:21:19.033Z,16.85
2022-08-02T02:22:18.957Z,16.63
2022-08-02T02:23:18.879Z,16.50
2022-08-02T02:24:18.803Z,16.44
2022-08-02T02:25:18.734Z,16.33
2022-08-02T02:26:29.471Z,16.35
2022-08-02T02:27:18.578Z,16.38
2022-08-02T02:28:18.505Z,16.42
2022-08-02T02:29:18.428Z,16.60
2022-08-02T02:30:18.351Z,16.57
2022-08-02T02:31:18.275Z,16.62
2022-08-02T02:32:18.197Z,16.60
2022-08-02T02:33:18.119Z,16.65
2022-08-02T02:34:18.044Z,16.74
2022-08-02T02:35:17.969Z,16.71
2022-08-02T02:36:17.893Z,16.70
2022-08-02T02:37:17.817Z,16.74
2022-08-02T02:38:17.740Z,16.80
2022-08-02T02:39:17.666Z,16.85
2022-08-02T02:40:17.587Z,16.92
2022-08-02T02:41:17.513Z,16.82
2022-08-02T02:42:17.435Z,16.95
2022-08-02T02:43:17.365Z,16.93
2022-08-02T02:44:17.281Z,16.99
2022-08-02T02:45:17.208Z,17.02
2022-08-02T02:46:17.129Z,16.99
2022-08-02T02:47:17.054Z,16.93
2022-08-02T02:48:16.977Z,17.00
2022-08-02T02:49:16.961Z,16.85
2022-08-02T02:50:16.827Z,16.85
2022-08-02T02:51:16.751Z,16.75
2022-08-02T02:52:16.674Z,16.65
2022-08-02T02:53:16.595Z,16.74
2022-08-02T02:54:30.693Z,16.50
2022-08-02T02:55:16.445Z,16.41
2022-08-02T02:56:16.370Z,16.41
2022-08-02T02:57:16.297Z,16.45
2022-08-02T02:58:16.215Z,16.38
2022-08-02T02:59:16.148Z,16.41
2022-08-02T03:00:16.067Z,16.44
2022-08-02T03:01:16.281Z,16.48
2022-08-02T03:02:15.909Z,16.37
2022-08-02T03:03:15.832Z,16.18
2022-08-02T03:04:15.764Z,16.27
2022-08-02T03:05:15.681Z,16.10
2022-08-02T03:06:16.117Z,16.04
2022-08-02T03:07:15.532Z,16.07
2022-08-02T03:08:15.455Z,16.03
2022-08-02T03:09:15.376Z,15.96
2022-08-02T03:10:15.301Z,15.89
2022-08-02T03:11:15.226Z,15.86
2022-08-02T03:12:15.150Z,15.83
2022-08-02T03:13:15.073Z,15.81
2022-08-02T03:14:14.995Z,15.73
2022-08-02T03:15:14.921Z,15.82
2022-08-02T03:16:14.842Z,15.76
2022-08-02T03:17:14.767Z,15.70
2022-08-02T03:18:14.693Z,15.79
2022-08-02T03:19:14.632Z,15.88
2022-08-02T03:20:14.537Z,15.88
2022-08-02T03:21:14.463Z,15.97
2022-08-02T03:22:14.513Z,15.97
2022-08-02T03:23:14.304Z,15.97
2022-08-02T03:24:14.229Z,15.83
2022-08-02T03:25:14.154Z,15.78
2022-08-02T03:26:14.079Z,15.66
2022-08-02T03:27:14.001Z,15.64
2022-08-02T03:28:13.936Z,15.61
2022-08-02T03:29:13.849Z,15.64
2022-08-02T03:30:13.777Z,15.71
2022-08-02T03:31:13.696Z,15.63
2022-08-02T03:32:13.996Z,15.64
2022-08-02T03:33:13.538Z,15.64
2022-08-02T03:34:13.464Z,15.61
2022-08-02T03:35:13.393Z,15.67
2022-08-02T03:36:13.314Z,15.81
2022-08-02T03:37:13.234Z,15.78
2022-08-02T03:38:13.159Z,15.75
2022-08-02T03:39:13.088Z,15.49
2022-08-02T03:40:13.019Z,15.52
2022-08-02T03:41:12.928Z,15.52
2022-08-02T03:42:15.695Z,15.52
2022-08-02T03:43:12.775Z,15.52
2022-08-02T03:44:12.703Z,15.53
2022-08-02T03:45:12.624Z,15.59
2022-08-02T03:46:12.548Z,15.60
2022-08-02T03:47:12.469Z,15.60
2022-08-02T03:48:34.190Z,15.63
2022-08-02T03:49:12.334Z,15.66
2022-08-02T03:50:12.237Z,15.63
2022-08-02T03:51:12.162Z,15.76
2022-08-02T03:52:12.554Z,15.85
2022-08-02T03:53:19.908Z,15.88
2022-08-02T03:54:11.934Z,15.92
2022-08-02T03:55:11.854Z,15.96
2022-08-02T03:56:11.778Z,15.96
2022-08-02T03:57:11.703Z,16.06
2022-08-02T03:58:11.628Z,16.08
2022-08-02T03:59:11.551Z,16.12
2022-08-02T04:00:11.472Z,16.25
2022-08-02T04:01:11.495Z,16.18
2022-08-02T04:02:11.688Z,16.14
2022-08-02T04:03:11.242Z,16.12
2022-08-02T04:04:11.168Z,16.23
2022-08-02T04:05:11.087Z,16.20
2022-08-02T04:06:11.008Z,16.16
2022-08-02T04:07:10.934Z,16.23
2022-08-02T04:08:36.728Z,16.20
2022-08-02T04:09:10.777Z,16.22
2022-08-02T04:10:10.705Z,16.27
2022-08-02T04:11:10.627Z,16.16
2022-08-02T04:12:10.875Z,16.20
2022-08-02T04:13:10.473Z,16.15
2022-08-02T04:14:11.258Z,16.29
2022-08-02T04:15:10.317Z,16.26
2022-08-02T04:16:10.243Z,16.27
2022-08-02T04:17:10.169Z,16.30
2022-08-02T04:18:10.093Z,16.30
2022-08-02T04:19:10.014Z,16.34
2022-08-02T04:20:09.936Z,16.34
2022-08-02T04:21:09.858Z,16.30
2022-08-02T04:22:10.061Z,16.16
2022-08-02T04:23:09.705Z,16.07
2022-08-02T04:24:10.956Z,16.04
2022-08-02T04:25:09.607Z,16.07
2022-08-02T04:26:10.931Z,16.01
2022-08-02T04:27:50.974Z,16.08
2022-08-02T04:28:15.706Z,16.08
2022-08-02T04:29:09.254Z,16.08
2022-08-02T04:30:09.170Z,16.08
2022-08-02T04:31:09.092Z,16.12
2022-08-02T04:32:09.354Z,16.20
2022-08-02T04:33:08.950Z,16.18
2022-08-02T04:34:08.861Z,16.20
2022-08-02T04:35:19.266Z,16.30
2022-08-02T04:36:08.709Z,16.30
2022-08-02T04:37:08.630Z,16.33
2022-08-02T04:38:10.467Z,16.38
2022-08-02T04:39:08.475Z,16.38
2022-08-02T04:40:08.402Z,16.37
2022-08-02T04:41:08.322Z,16.40
2022-08-02T04:42:08.247Z,16.47
2022-08-02T04:43:08.172Z,16.44
2022-08-02T04:44:08.092Z,16.45
2022-08-02T04:45:08.023Z,16.55
2022-08-02T04:46:07.941Z,16.56
2022-08-02T04:47:07.873Z,16.56
2022-08-02T04:48:07.785Z,16.66
2022-08-02T04:49:07.784Z,16.62
2022-08-02T04:50:07.634Z,16.56
2022-08-02T04:51:07.556Z,16.62
2022-08-02T04:52:07.480Z,16.57
2022-08-02T04:53:07.403Z,16.56
2022-08-02T04:54:09.634Z,16.60
2022-08-02T04:55:07.251Z,16.55
2022-08-02T04:56:07.173Z,16.63
2022-08-02T04:57:07.098Z,16.60
2022-08-02T04:58:24.106Z,16.60
2022-08-02T04:59:06.948Z,16.65
2022-08-02T05:00:06.933Z,16.67
2022-08-02T05:01:06.870Z,16.81
2022-08-02T05:02:06.720Z,16.81
2022-08-02T05:03:06.636Z,16.98
2022-08-02T05:04:06.562Z,16.93
2022-08-02T05:05:10.134Z,17.03
2022-08-02T05:06:18.996Z,17.14
2022-08-02T05:07:06.334Z,17.15
2022-08-02T05:08:06.259Z,17.23
2022-08-02T05:09:06.175Z,17.25
2022-08-02T05:10:06.100Z,17.26
2022-08-02T05:11:06.021Z,17.43
2022-08-02T05:12:05.947Z,17.53
2022-08-02T05:13:05.870Z,17.50
2022-08-02T05:14:05.834Z,17.58
2022-08-02T05:15:05.722Z,17.63
2022-08-02T05:16:05.644Z,17.66
2022-08-02T05:17:05.616Z,17.60
2022-08-02T05:18:05.495Z,17.71
2022-08-02T05:19:05.413Z,17.81
2022-08-02T05:20:05.334Z,17.91
2022-08-02T05:21:05.258Z,17.95
2022-08-02T05:22:05.189Z,17.96
2022-08-02T05:23:05.111Z,17.96
2022-08-02T05:24:05.032Z,18.06
2022-08-02T05:25:04.963Z,18.09
2022-08-02T05:26:04.879Z,18.18
2022-08-02T05:27:17.154Z,18.25
2022-08-02T05:28:08.350Z,18.22
2022-08-02T05:29:04.655Z,18.21
2022-08-02T05:30:04.572Z,18.25
2022-08-02T05:31:04.493Z,18.32
2022-08-02T05:32:04.418Z,18.39
2022-08-02T05:33:04.341Z,18.42
2022-08-02T05:34:06.621Z,18.40
2022-08-02T05:35:04.190Z,18.47
2022-08-02T05:36:04.113Z,18.50
2022-08-02T05:37:04.038Z,18.58
2022-08-02T05:38:03.966Z,18.58
2022-08-02T05:39:04.644Z,18.62
2022-08-02T05:40:03.809Z,18.64
2022-08-02T05:41:03.735Z,18.68
2022-08-02T05:42:03.662Z,18.69
2022-08-02T05:43:03.583Z,18.74
2022-08-02T05:44:03.505Z,18.77
2022-08-02T05:45:03.428Z,18.82
2022-08-02T05:46:03.361Z,18.79
2022-08-02T05:47:03.284Z,18.86
2022-08-02T05:48:04.009Z,18.87
2022-08-02T05:49:03.169Z,18.95
2022-08-02T05:50:03.054Z,18.92
2022-08-02T05:51:02.977Z,18.92
2022-08-02T05:52:02.902Z,19.01
2022-08-02T05:53:02.823Z,19.05
2022-08-02T05:54:02.747Z,19.02
2022-08-02T05:55:02.668Z,19.05
2022-08-02T05:56:08.099Z,19.15
2022-08-02T05:57:02.517Z,19.27
2022-08-02T05:58:02.447Z,19.28
2022-08-02T05:59:02.378Z,19.25
2022-08-02T06:00:02.921Z,19.25
2022-08-02T06:01:02.214Z,19.33
2022-08-02T06:02:02.215Z,19.45
2022-08-02T06:03:02.068Z,19.36
2022-08-02T06:04:01.999Z,19.36
2022-08-02T06:05:01.916Z,19.48
2022-08-02T06:06:01.840Z,19.50
2022-08-02T06:07:01.759Z,19.53
2022-08-02T06:08:01.685Z,19.57
2022-08-02T06:09:01.610Z,19.51
2022-08-02T06:10:01.550Z,19.57
2022-08-02T06:11:01.465Z,19.65
2022-08-02T06:12:02.954Z,19.69
2022-08-02T06:13:01.309Z,19.69
2022-08-02T06:14:01.257Z,19.64
2022-08-02T06:15:01.157Z,19.76
2022-08-02T06:16:01.081Z,19.76
2022-08-02T06:17:01.008Z,19.88
2022-08-02T06:18:00.933Z,19.90
2022-08-02T06:19:00.870Z,19.91
2022-08-02T06:20:00.780Z,19.93
2022-08-02T06:22:30.486Z,20.03
2022-08-02T06:22:42.029Z,20.06
2022-08-02T06:23:00.558Z,20.10
2022-08-02T06:24:00.486Z,20.13
2022-08-02T06:25:00.401Z,20.20
2022-08-02T06:26:00.330Z,20.10
2022-08-02T06:27:00.254Z,20.30
2022-08-02T06:28:00.176Z,20.28
2022-08-02T06:29:00.105Z,20.27
2022-08-02T06:30:00.031Z,20.38
2022-08-02T06:30:59.954Z,20.42
2022-08-02T06:31:59.877Z,20.43
2022-08-02T06:32:59.807Z,20.51
2022-08-02T06:33:59.732Z,20.53
2022-08-02T06:34:59.649Z,20.57
2022-08-02T06:35:59.574Z,20.64
2022-08-02T06:36:59.502Z,20.65
2022-08-02T06:37:59.436Z,20.68
2022-08-02T06:38:59.352Z,20.65
2022-08-02T06:39:59.276Z,20.64
2022-08-02T06:40:59.201Z,20.80
2022-08-02T06:41:59.127Z,20.80
2022-08-02T06:42:59.050Z,20.80
2022-08-02T06:44:08.955Z,20.90
2022-08-02T06:44:58.908Z,20.96
2022-08-02T06:47:08.354Z,21.02
2022-08-02T06:47:10.793Z,21.09
2022-08-02T06:47:58.679Z,21.11
2022-08-02T06:48:58.621Z,21.21
2022-08-02T06:49:58.609Z,21.09
2022-08-02T06:50:58.452Z,21.17
2022-08-02T06:51:58.377Z,21.20
2022-08-02T06:52:58.305Z,21.27
2022-08-02T06:53:58.241Z,21.27
2022-08-02T06:54:58.153Z,21.33
2022-08-02T06:55:58.079Z,21.35
2022-08-02T06:56:58.003Z,21.30
2022-08-02T06:57:57.926Z,21.35
2022-08-02T06:58:57.853Z,21.44
2022-08-02T06:59:57.779Z,21.60
2022-08-02T07:00:57.706Z,21.66
2022-08-02T07:01:57.675Z,21.67
2022-08-02T07:02:57.557Z,21.75
2022-08-02T07:03:57.480Z,21.72
2022-08-02T07:04:57.408Z,21.79
2022-08-02T07:05:57.331Z,21.84
2022-08-02T07:06:57.266Z,21.98
2022-08-02T07:07:57.185Z,21.94
2022-08-02T07:09:19.349Z,21.94
2022-08-02T07:10:00.423Z,21.98
2022-08-02T07:10:56.963Z,21.97
2022-08-02T07:11:56.886Z,22.07
2022-08-02T07:12:59.794Z,22.13
2022-08-02T07:13:56.739Z,22.08
2022-08-02T07:14:56.663Z,22.15
2022-08-02T07:15:56.591Z,22.19
2022-08-02T07:16:56.516Z,22.28
2022-08-02T07:17:56.441Z,22.41
2022-08-02T07:18:56.368Z,22.37
2022-08-02T07:19:56.294Z,22.46
2022-08-02T07:20:56.218Z,22.52
2022-08-02T07:22:01.718Z,22.52
2022-08-02T07:22:56.070Z,22.56
2022-08-02T07:23:55.997Z,22.71
2022-08-02T07:24:55.921Z,22.71
2022-08-02T07:26:03.025Z,22.74
2022-08-02T07:27:10.777Z,22.83
2022-08-02T07:27:55.702Z,22.84
2022-08-02T07:28:55.631Z,22.92
2022-08-02T07:29:55.554Z,22.87
2022-08-02T07:30:55.481Z,22.90
2022-08-02T07:31:55.417Z,22.97
2022-08-02T07:32:55.331Z,23.12
2022-08-02T07:33:55.257Z,23.14
2022-08-02T07:34:55.587Z,23.29
2022-08-02T07:35:55.114Z,23.38
2022-08-02T07:36:55.037Z,23.35
2022-08-02T07:37:58.123Z,23.43
2022-08-02T07:38:54.893Z,23.58
2022-08-02T07:39:54.818Z,23.61
2022-08-02T07:40:54.747Z,23.80
2022-08-02T07:41:54.673Z,23.89
2022-08-02T07:42:59.310Z,24.07
2022-08-02T07:43:54.523Z,24.08
2022-08-02T07:44:54.451Z,24.12
2022-08-02T07:45:57.348Z,24.19
2022-08-02T07:46:54.307Z,24.15
2022-08-02T07:47:54.234Z,24.17
2022-08-02T07:48:54.194Z,24.16
2022-08-02T07:49:54.086Z,24.15
2022-08-02T07:50:54.018Z,24.17
2022-08-02T07:51:53.946Z,24.17
2022-08-02T07:52:57.420Z,24.42
2022-08-02T07:54:02.035Z,24.52
2022-08-02T07:54:53.736Z,24.50
2022-08-02T07:55:53.653Z,24.64
2022-08-02T07:56:58.599Z,24.88
2022-08-02T07:57:53.506Z,25.04
2022-08-02T07:58:53.436Z,25.15
2022-08-02T07:59:53.361Z,25.23
2022-08-02T08:00:53.292Z,25.31
2022-08-02T08:01:53.272Z,25.31
2022-08-02T08:02:57.350Z,25.50
2022-08-02T08:03:53.073Z,25.60
2022-08-02T08:04:52.999Z,25.59
2022-08-02T08:05:52.927Z,25.70
2022-08-02T08:06:52.861Z,25.82
2022-08-02T08:07:52.789Z,25.78
2022-08-02T08:08:52.717Z,25.82
2022-08-02T08:09:56.553Z,25.87
2022-08-02T08:10:52.573Z,25.93
2022-08-02T08:11:52.498Z,25.86
2022-08-02T08:12:52.430Z,25.96
2022-08-02T08:13:52.356Z,26.08
2022-08-02T08:14:52.287Z,26.07
2022-08-02T08:15:52.766Z,26.15
2022-08-02T08:16:52.142Z,26.38
2022-08-02T08:17:52.070Z,26.47
2022-08-02T08:18:51.998Z,26.53
2022-08-02T08:19:53.014Z,26.62
2022-08-02T08:20:52.041Z,26.68
2022-08-02T08:21:51.785Z,26.71
2022-08-02T08:22:51.718Z,26.86
2022-08-02T08:23:51.644Z,26.95
2022-08-02T08:24:51.580Z,27.09
2022-08-02T08:25:51.501Z,27.19
2022-08-02T08:26:51.449Z,27.14
2022-08-02T08:27:51.362Z,27.27
2022-08-02T08:28:51.291Z,27.19
2022-08-02T08:29:51.220Z,27.20
2022-08-02T08:30:51.151Z,27.20
2022-08-02T08:31:51.076Z,27.35
2022-08-02T08:32:51.012Z,27.35
2022-08-02T08:33:50.938Z,27.32
2022-08-02T08:34:50.867Z,27.38
2022-08-02T08:35:50.798Z,27.35
2022-08-02T08:36:50.733Z,27.35
2022-08-02T08:37:50.657Z,27.32
2022-08-02T08:38:50.590Z,27.38
2022-08-02T08:39:57.178Z,27.39
2022-08-02T08:40:50.448Z,27.54
2022-08-02T08:41:50.373Z,27.64
2022-08-02T08:42:50.310Z,27.69
2022-08-02T08:43:53.404Z,27.60
2022-08-02T08:44:50.171Z,27.64
2022-08-02T08:45:55.636Z,27.77
2022-08-02T08:46:50.027Z,27.84
2022-08-02T08:47:49.955Z,27.80
2022-08-02T08:48:49.942Z,27.84
2022-08-02T08:49:52.716Z,27.98
2022-08-02T08:50:49.753Z,28.01
2022-08-02T08:51:49.679Z,28.11
2022-08-02T08:52:49.614Z,28.19
2022-08-02T08:53:49.539Z,28.31
2022-08-02T08:54:49.982Z,28.44
2022-08-02T08:55:49.402Z,28.49
2022-08-02T08:56:49.338Z,28.51
2022-08-02T08:57:49.265Z,28.68
2022-08-02T08:58:49.194Z,28.63
2022-08-02T08:59:49.123Z,28.69
2022-08-02T09:00:49.092Z,28.51
2022-08-02T09:01:49.852Z,28.56
2022-08-02T09:02:48.921Z,28.57
2022-08-02T09:03:48.853Z,28.71
2022-08-02T09:04:49.295Z,28.88
2022-08-02T09:05:48.710Z,28.98
2022-08-02T09:06:48.645Z,28.93
2022-08-02T09:07:48.576Z,28.84
2022-08-02T09:08:48.504Z,28.75
2022-08-02T09:09:48.443Z,28.57
2022-08-02T09:10:48.369Z,28.54
2022-08-02T09:11:48.299Z,28.61
2022-08-02T09:12:48.230Z,28.71
2022-08-02T09:13:48.158Z,28.78
2022-08-02T09:14:50.397Z,28.71
2022-08-02T09:15:48.025Z,28.73
2022-08-02T09:16:47.956Z,28.78
2022-08-02T09:17:47.890Z,28.61
2022-08-02T09:18:47.818Z,28.59
2022-08-02T09:19:47.745Z,28.50
2022-08-02T09:20:47.681Z,28.32
2022-08-02T09:21:47.607Z,28.28
2022-08-02T09:22:47.551Z,28.22
2022-08-02T09:23:47.488Z,28.11
2022-08-02T09:24:47.403Z,27.89
2022-08-02T09:25:58.959Z,27.95
2022-08-02T09:26:47.274Z,27.92
2022-08-02T09:27:47.201Z,27.79
2022-08-02T09:28:47.135Z,27.88
2022-08-02T09:30:09.774Z,27.88
2022-08-02T09:30:46.995Z,27.77
2022-08-02T09:31:50.029Z,27.70
2022-08-02T09:32:46.869Z,27.73
2022-08-02T09:33:46.787Z,27.69
2022-08-02T09:34:46.719Z,27.74
2022-08-02T09:36:06.796Z,27.79
2022-08-02T09:36:46.582Z,27.80
2022-08-02T09:37:48.688Z,27.74
2022-08-02T09:38:46.443Z,27.76
2022-08-02T09:39:46.591Z,27.79
2022-08-02T09:40:46.306Z,27.70
2022-08-02T09:41:46.237Z,27.79
2022-08-02T09:42:46.168Z,27.72
2022-08-02T09:44:04.032Z,27.77
2022-08-02T09:44:46.027Z,27.88
2022-08-02T09:45:45.962Z,27.98
2022-08-02T09:46:45.888Z,28.19
2022-08-02T09:47:45.825Z,28.38
2022-08-02T09:48:45.756Z,28.54
2022-08-02T09:49:45.698Z,28.71
2022-08-02T09:50:45.615Z,28.86
2022-08-02T09:51:45.547Z,29.01
2022-08-02T09:52:45.489Z,29.21
2022-08-02T09:53:45.407Z,29.36
2022-08-02T09:54:45.340Z,29.48
2022-08-02T09:55:45.272Z,29.66
2022-08-02T09:56:45.214Z,29.68
2022-08-02T09:57:51.101Z,29.92
2022-08-02T09:58:45.067Z,30.11
2022-08-02T09:59:44.998Z,30.29
2022-08-02T10:00:52.483Z,30.36
2022-08-02T10:01:48.436Z,30.43
2022-08-02T10:02:44.799Z,30.48
2022-08-02T10:03:44.724Z,30.46
2022-08-02T10:04:52.530Z,30.44
2022-08-02T10:05:46.959Z,30.50
2022-08-02T10:06:44.522Z,30.24
2022-08-02T10:07:44.452Z,30.11
2022-08-02T10:08:44.387Z,29.87
2022-08-02T10:09:47.488Z,29.73
2022-08-02T10:10:44.254Z,29.62
2022-08-02T10:11:44.187Z,29.53
2022-08-02T10:12:44.116Z,29.47
2022-08-02T10:13:44.049Z,29.31
2022-08-02T10:14:43.983Z,29.36
2022-08-02T10:15:50.235Z,29.36
2022-08-02T10:16:43.853Z,29.34
2022-08-02T10:17:43.789Z,29.25
2022-08-02T10:18:43.709Z,29.32
2022-08-02T10:20:02.961Z,29.22
2022-08-02T10:20:43.575Z,29.28
2022-08-02T10:21:46.592Z,29.34
2022-08-02T10:22:43.443Z,29.40
2022-08-02T10:23:43.372Z,29.21
2022-08-02T10:24:48.362Z,29.19
2022-08-02T10:25:43.238Z,29.14
2022-08-02T10:26:43.168Z,29.19
2022-08-02T10:28:04.294Z,29.09
2022-08-02T10:28:43.037Z,29.13
2022-08-02T10:29:53.399Z,29.21
2022-08-02T10:30:42.902Z,29.25
2022-08-02T10:31:42.832Z,29.43
2022-08-02T10:32:42.764Z,29.55
2022-08-02T10:33:42.697Z,29.68
2022-08-02T10:34:42.629Z,29.77
2022-08-02T10:35:42.557Z,30.02
2022-08-02T10:36:42.493Z,29.97
2022-08-02T10:37:42.422Z,30.17
2022-08-02T10:38:42.357Z,30.00
2022-08-02T10:39:42.288Z,30.00
2022-08-02T10:40:42.224Z,29.83
2022-08-02T10:41:42.156Z,29.77
2022-08-02T10:42:42.085Z,29.74
2022-08-02T10:43:42.020Z,29.65
2022-08-02T10:44:41.952Z,29.44
2022-08-02T10:45:41.881Z,29.46
2022-08-02T10:46:41.816Z,29.37
2022-08-02T10:47:41.747Z,29.31
2022-08-02T10:48:41.684Z,29.29
2022-08-02T10:49:41.693Z,29.25
2022-08-02T10:50:41.570Z,29.26
2022-08-02T10:51:41.478Z,29.31
2022-08-02T10:52:41.411Z,29.16
2022-08-02T10:53:41.344Z,29.14
2022-08-02T10:54:41.273Z,29.11
2022-08-02T10:55:41.209Z,29.09
2022-08-02T10:56:41.143Z,29.09
2022-08-02T10:57:41.073Z,29.16
2022-08-02T10:58:41.007Z,29.18
2022-08-02T10:59:40.940Z,29.11
2022-08-02T11:00:40.913Z,29.14
2022-08-02T11:01:40.833Z,29.06
2022-08-02T11:02:40.730Z,29.10
2022-08-02T11:03:40.938Z,29.29
2022-08-02T11:04:40.596Z,29.41
2022-08-02T11:05:42.304Z,29.51
2022-08-02T11:06:40.465Z,29.75
2022-08-02T11:07:40.397Z,29.99
2022-08-02T11:08:40.324Z,30.18
2022-08-02T11:09:40.259Z,30.40
2022-08-02T11:10:40.196Z,30.53
2022-08-02T11:11:53.909Z,30.56
2022-08-02T11:12:40.055Z,30.77
2022-08-02T11:13:39.990Z,30.77
2022-08-02T11:14:39.921Z,31.02
2022-08-02T11:15:39.853Z,31.07
2022-08-02T11:16:39.790Z,31.16
2022-08-02T11:17:41.137Z,31.31
2022-08-02T11:18:39.653Z,31.24
2022-08-02T11:19:39.589Z,31.45
2022-08-02T11:20:39.519Z,31.53
2022-08-02T11:21:39.455Z,31.48
2022-08-02T11:22:39.384Z,31.66
2022-08-02T11:23:44.153Z,31.67
2022-08-02T11:24:39.252Z,31.64
2022-08-02T11:26:02.701Z,31.51
2022-08-02T11:26:39.119Z,31.66
2022-08-02T11:27:39.053Z,31.45
2022-08-02T11:28:38.987Z,31.11
2022-08-02T11:29:39.102Z,30.64
2022-08-02T11:30:38.852Z,30.49
2022-08-02T11:31:38.787Z,30.30
2022-08-02T11:32:38.719Z,30.18
2022-08-02T11:33:38.653Z,29.97
2022-08-02T11:34:38.603Z,29.77
2022-08-02T11:35:38.530Z,29.69
2022-08-02T11:36:38.452Z,29.75
2022-08-02T11:37:38.391Z,29.75
2022-08-02T11:38:38.322Z,29.71
2022-08-02T11:39:38.255Z,29.63
2022-08-02T11:40:38.191Z,29.47
2022-08-02T11:41:46.253Z,29.41
2022-08-02T11:42:38.055Z,29.43
2022-08-02T11:43:37.992Z,29.43
2022-08-02T11:44:37.922Z,29.50
2022-08-02T11:45:37.859Z,29.50
2022-08-02T11:46:37.791Z,29.51
2022-08-02T11:47:37.725Z,29.48
2022-08-02T11:48:37.651Z,29.50
2022-08-02T11:49:37.646Z,29.71
2022-08-02T11:50:37.519Z,29.99
2022-08-02T11:51:37.461Z,30.12
2022-08-02T11:52:37.389Z,30.40
2022-08-02T11:53:37.327Z,30.44
2022-08-02T11:54:37.253Z,30.72
2022-08-02T11:55:37.188Z,30.97
2022-08-02T11:56:37.122Z,31.09
2022-08-02T11:58:03.473Z,31.09
2022-08-02T11:58:36.986Z,31.18
2022-08-02T11:59:36.923Z,31.27
2022-08-02T12:00:36.855Z,31.29
2022-08-02T12:01:45.398Z,31.48
2022-08-02T12:02:36.724Z,31.41
2022-08-02T12:03:36.703Z,31.42
2022-08-02T12:04:36.591Z,31.42
2022-08-02T12:06:05.684Z,31.57
2022-08-02T12:06:36.459Z,31.55
2022-08-02T12:07:36.558Z,31.63
2022-08-02T12:08:36.325Z,31.60
2022-08-02T12:09:40.881Z,31.44
2022-08-02T12:10:36.203Z,31.45
2022-08-02T12:11:39.313Z,31.38
2022-08-02T12:12:36.070Z,31.24
2022-08-02T12:13:35.994Z,31.27
2022-08-02T12:14:35.938Z,31.21
2022-08-02T12:15:35.860Z,31.16
2022-08-02T12:16:35.795Z,31.08
2022-08-02T12:17:35.734Z,31.11
2022-08-02T12:18:35.670Z,30.79
2022-08-02T12:19:35.595Z,30.92
2022-08-02T12:20:35.529Z,30.94
2022-08-02T12:21:35.465Z,30.92
2022-08-02T12:22:38.876Z,30.90
2022-08-02T12:23:35.336Z,30.93
2022-08-02T12:24:35.274Z,31.02
2022-08-02T12:25:35.635Z,31.15
2022-08-02T12:26:35.136Z,31.23
2022-08-02T12:27:35.083Z,31.16
2022-08-02T12:28:35.002Z,31.11
2022-08-02T12:29:56.011Z,30.99
2022-08-02T12:30:34.869Z,31.05
2022-08-02T12:31:34.808Z,30.94
2022-08-02T12:32:34.736Z,30.90
2022-08-02T12:33:39.098Z,30.87
2022-08-02T12:34:34.605Z,30.78
2022-08-02T12:35:34.536Z,30.72
2022-08-02T12:36:34.474Z,30.90
2022-08-02T12:37:34.415Z,31.11
2022-08-02T12:38:34.341Z,31.23
2022-08-02T12:39:34.275Z,31.48
2022-08-02T12:40:34.219Z,31.51
2022-08-02T12:41:34.139Z,31.78
2022-08-02T12:42:34.072Z,31.89
2022-08-02T12:43:34.006Z,31.82
2022-08-02T12:44:33.945Z,31.75
2022-08-02T12:45:36.537Z,31.71
2022-08-02T12:46:41.953Z,31.70
2022-08-02T12:47:35.963Z,31.78
2022-08-02T12:48:37.355Z,31.87
2022-08-02T12:49:33.667Z,31.94
2022-08-02T12:50:33.554Z,32.20
2022-08-02T12:51:51.130Z,32.43